Bookmark and Share
Track history (hours):
 

Neptune Kefalonia

Last reported at 2013-Jan-29 08:15 UTC. Time now 2014-Apr-24 22:28 UTC.
Position N 37°58' E 023°36'.
Warning: this ship's position is years out of date!

Length 169 m; draft 8.3 m.

Type: Cargo ship. MMSI: 249997000.

NotesDate/timePositionNaut miles runAvg speedWind from/ knotsBaromVisibWave heightAir tempDewpointWater temp
2013-Jan-29 08:15N 37°58' E 023°36'0 0.0
2013-Jan-29 07:09N 37°58' E 023°36'0 0.0
2013-Jan-29 05:15N 37°58' E 023°36'0 0.0
2013-Jan-28 23:33N 37°58' E 023°36'0 0.0
2013-Jan-28 22:27N 37°58' E 023°36'0 0.1
2013-Jan-28 18:33N 37°57' E 023°36'3 3.0
2013-Jan-28 17:33N 37°54' E 023°36'1313.4
2013-Jan-28 16:33N 37°43' E 023°44'2015.7
2013-Jan-28 15:18N 37°38' E 024°08'  
2013-Jan-21 21:29N 37°53' E 024°33'3015.6
2013-Jan-21 19:33N 37°38' E 024°01'1615.7
2013-Jan-21 18:33N 37°41' E 023°42'1615.6
2013-Jan-21 17:33N 37°56' E 023°36'1 1.3
2013-Jan-21 16:32N 37°58' E 023°36'0 0.0
2013-Jan-21 15:32N 37°58' E 023°36'0 0.0
2013-Jan-21 14:32N 37°58' E 023°36'0 0.0
2013-Jan-21 13:26N 37°58' E 023°36'3 3.8
2013-Jan-21 12:33N 37°55' E 023°35'2 2.6
2013-Jan-21 11:36N 37°53' E 023°37'1615.6
2013-Jan-21 10:33N 37°38' E 023°44'1616.4
2013-Jan-21 09:33N 37°23' E 023°37'1615.9
2013-Jan-21 08:33N 37°08' E 023°30'1616.3
2013-Jan-21 07:33N 36°52' E 023°23'2116.2
2013-Jan-21 06:16N 36°33' E 023°16'2313.5
2013-Jan-21 04:33N 36°24' E 022°49'  

Dump ship's entire track history

sailing weather and tide predictions

Neptune Kefalonia — 9HA2117 — position and weather